Terminal Aerodrome Forecast
Issued by NWS

Home | Current Version | Previous Version | Text Only | Print | Product List | Glossary On
Versions: 1 2 3 4 5 6 7 8 9 10 11 12 13 14 15 16 17 18 19
000
FTUS46 KPDT 202006 AAA
TAFBDN
TAF AMD
KBDN 202006Z 2020/2118 27011G16KT P6SM VCSH SCT060
     FM202200 28015G25KT P6SM -SHRA SCT040 BKN060
     FM210200 28011KT P6SM BKN060
     FM210500 VRB05KT P6SM SCT060
     FM211300 21004KT P6SM SCT040 BKN120=

USA.gov is the U.S. government's official web portal to all federal, state and local government web resources and services.